createdAt,value
2023-04-18T00:00:49.872Z,7.37
2023-04-18T00:03:52.788Z,7.53
2023-04-18T00:06:55.904Z,7.40
2023-04-18T00:09:58.546Z,6.32
2023-04-18T00:13:01.112Z,6.77
2023-04-18T00:16:03.884Z,7.93
2023-04-18T00:19:06.606Z,7.00
2023-04-18T00:22:13.396Z,6.82
2023-04-18T00:25:16.066Z,7.65
2023-04-18T00:28:18.648Z,7.40
2023-04-18T00:31:21.234Z,9.23
2023-04-18T00:34:23.900Z,8.07
2023-04-18T00:37:29.834Z,7.85
2023-04-18T00:40:32.499Z,7.82
2023-04-18T00:43:35.307Z,7.93
2023-04-18T00:46:38.017Z,7.03
2023-04-18T00:49:40.732Z,7.00
2023-04-18T00:52:43.763Z,6.60
2023-04-18T00:55:46.508Z,6.13
2023-04-18T00:58:49.077Z,5.97
2023-04-18T01:01:51.751Z,6.07
2023-04-18T01:04:54.444Z,6.10
2023-04-18T01:08:01.141Z,6.25
2023-04-18T01:11:04.043Z,6.78
2023-04-18T01:14:08.250Z,7.13
2023-04-18T01:17:13.557Z,7.43
2023-04-18T01:20:16.994Z,6.38
2023-04-18T01:23:20.452Z,6.57
2023-04-18T01:26:23.168Z,6.72
2023-04-18T01:29:26.519Z,5.57
2023-04-18T01:32:29.178Z,5.40
2023-04-18T01:35:32.802Z,5.03
2023-04-18T01:38:35.324Z,4.93
2023-04-18T01:41:38.100Z,5.05
2023-04-18T01:44:40.966Z,4.33
2023-04-18T01:47:44.221Z,4.53
2023-04-18T01:50:47.485Z,5.53
2023-04-18T01:53:50.232Z,4.30
2023-04-18T01:56:52.774Z,5.22
2023-04-18T01:59:55.594Z,4.47
2023-04-18T02:03:00.024Z,4.23
2023-04-18T02:06:04.323Z,4.72
2023-04-18T02:09:06.948Z,4.15
2023-04-18T02:12:10.218Z,4.43
2023-04-18T02:15:12.830Z,4.37
2023-04-18T02:18:17.495Z,4.90
2023-04-18T02:21:20.112Z,3.95
2023-04-18T02:24:24.701Z,4.43
2023-04-18T02:27:27.303Z,5.38
2023-04-18T02:30:32.769Z,4.57
2023-04-18T02:33:37.909Z,3.80
2023-04-18T02:36:40.954Z,4.82
2023-04-18T02:39:46.169Z,4.75
2023-04-18T02:42:48.781Z,4.65
2023-04-18T02:45:51.421Z,4.90
2023-04-18T02:48:53.981Z,4.67
2023-04-18T02:51:59.894Z,4.40
2023-04-18T02:55:02.621Z,4.38
2023-04-18T02:58:11.461Z,5.25
2023-04-18T03:01:22.940Z,5.67
2023-04-18T03:04:33.400Z,5.30
2023-04-18T03:07:38.540Z,4.57
2023-04-18T03:10:41.678Z,4.93
2023-04-18T03:13:44.475Z,5.97
2023-04-18T03:16:47.856Z,5.10
2023-04-18T03:19:54.606Z,5.00
2023-04-18T03:22:57.293Z,4.75
2023-04-18T03:26:02.233Z,4.75
2023-04-18T03:29:07.382Z,4.90
2023-04-18T03:32:10.037Z,5.97
2023-04-18T03:35:12.704Z,5.30
2023-04-18T03:38:15.440Z,4.50
2023-04-18T03:41:19.036Z,4.35
2023-04-18T03:44:21.716Z,4.95
2023-04-18T03:47:24.446Z,5.20
2023-04-18T03:50:31.688Z,4.93
2023-04-18T03:53:34.401Z,5.05
2023-04-18T03:56:37.054Z,4.93
2023-04-18T03:59:39.686Z,4.40
2023-04-18T04:02:42.638Z,4.77
2023-04-18T04:05:48.331Z,4.30
2023-04-18T04:08:52.038Z,4.97
2023-04-18T04:11:59.052Z,5.10
2023-04-18T04:15:03.463Z,5.25
2023-04-18T04:18:06.679Z,5.33
2023-04-18T04:21:12.436Z,5.13
2023-04-18T04:24:22.792Z,4.88
2023-04-18T04:27:27.217Z,5.20
2023-04-18T04:30:31.885Z,5.00
2023-04-18T04:33:35.695Z,4.73
2023-04-18T04:36:43.249Z,4.80
2023-04-18T04:39:48.653Z,4.60
2023-04-18T04:43:15.739Z,5.80
2023-04-18T04:46:20.563Z,4.88
2023-04-18T04:49:25.613Z,4.63
2023-04-18T04:52:28.136Z,4.70
2023-04-18T04:55:31.095Z,5.32
2023-04-18T04:58:33.841Z,5.45
2023-04-18T05:01:53.351Z,5.65
2023-04-18T05:05:11.663Z,5.17
2023-04-18T05:08:14.434Z,4.67
2023-04-18T05:11:18.141Z,4.93
2023-04-18T05:14:22.356Z,5.25
2023-04-18T05:17:31.531Z,4.45
2023-04-18T05:20:34.367Z,5.60
2023-04-18T05:23:37.271Z,4.50
2023-04-18T05:26:40.294Z,4.20
2023-04-18T05:29:42.851Z,4.10
2023-04-18T05:32:46.561Z,4.97
2023-04-18T05:35:49.490Z,4.30
2023-04-18T05:38:52.351Z,4.90
2023-04-18T05:41:55.668Z,5.03
2023-04-18T05:44:58.367Z,4.43
2023-04-18T05:48:01.760Z,4.75
2023-04-18T05:51:06.056Z,4.07
2023-04-18T05:54:08.768Z,3.30
2023-04-18T05:57:12.094Z,4.13
2023-04-18T06:00:15.370Z,4.13
2023-04-18T06:03:18.303Z,3.75
2023-04-18T06:06:21.731Z,4.20
2023-04-18T06:09:24.360Z,4.23
2023-04-18T06:12:27.160Z,4.43
2023-04-18T06:15:30.258Z,4.05
2023-04-18T06:18:33.193Z,3.85
2023-04-18T06:21:36.182Z,3.90
2023-04-18T06:24:39.082Z,4.20
2023-04-18T06:27:41.755Z,3.95
2023-04-18T06:30:45.427Z,3.83
2023-04-18T06:33:48.201Z,4.85
2023-04-18T06:36:50.907Z,4.20
2023-04-18T06:39:54.385Z,3.10
2023-04-18T06:42:57.208Z,3.88
2023-04-18T06:45:59.971Z,4.40
2023-04-18T06:49:02.784Z,4.25
2023-04-18T06:52:05.593Z,3.90
2023-04-18T06:55:09.404Z,4.40
2023-04-18T06:58:14.149Z,3.67
2023-04-18T07:01:17.018Z,4.30
2023-04-18T07:04:20.230Z,4.00
2023-04-18T07:07:23.448Z,3.70
2023-04-18T07:10:26.501Z,4.10
2023-04-18T07:13:29.765Z,3.70
2023-04-18T07:16:32.898Z,4.75
2023-04-18T07:19:35.894Z,4.95
2023-04-18T07:22:39.288Z,4.83
2023-04-18T07:25:41.991Z,4.13
2023-04-18T07:28:47.575Z,5.00
2023-04-18T07:31:51.430Z,3.45
2023-04-18T07:34:54.158Z,4.00
2023-04-18T07:37:57.115Z,3.80
2023-04-18T07:41:00.863Z,3.43
2023-04-18T07:44:03.549Z,4.07
2023-04-18T07:47:10.078Z,3.90
2023-04-18T07:50:12.910Z,4.32
2023-04-18T08:14:38.960Z,3.33
2023-04-18T08:38:55.068Z,2.17
2023-04-18T08:42:00.062Z,1.92
2023-04-18T08:45:04.345Z,2.30
2023-04-18T08:48:17.062Z,2.10
2023-04-18T08:51:20.049Z,1.80
2023-04-18T08:54:25.078Z,2.07
2023-04-18T08:57:31.663Z,1.73
2023-04-18T09:00:43.434Z,2.63
2023-04-18T09:03:46.836Z,2.00
2023-04-18T09:06:55.750Z,2.37
2023-04-18T09:10:02.824Z,2.80
2023-04-18T09:13:15.275Z,3.20
2023-04-18T09:16:26.590Z,2.78
2023-04-18T09:19:32.148Z,2.70
2023-04-18T09:22:56.091Z,3.87
2023-04-18T09:26:03.226Z,4.27
2023-04-18T09:29:06.546Z,3.58
2023-04-18T09:32:15.338Z,5.25
2023-04-18T09:35:24.534Z,3.42
2023-04-18T09:38:41.324Z,3.50
2023-04-18T09:41:58.633Z,4.10
2023-04-18T09:45:06.906Z,3.40
2023-04-18T09:48:09.639Z,4.47
2023-04-18T09:51:16.032Z,3.92
2023-04-18T09:54:20.725Z,4.10
2023-04-18T09:57:26.531Z,4.73
2023-04-18T10:00:31.169Z,9.82
2023-04-18T10:03:39.276Z,7.50
2023-04-18T10:06:54.853Z,3.92
2023-04-18T10:09:57.816Z,4.90
2023-04-18T10:13:03.390Z,4.47
2023-04-18T10:16:09.709Z,3.45
2023-04-18T10:19:22.950Z,3.50
2023-04-18T10:22:29.037Z,3.28
2023-04-18T10:25:41.186Z,4.17
2023-04-18T10:29:00.414Z,3.90
2023-04-18T10:32:07.238Z,4.45
2023-04-18T10:35:10.957Z,3.92
2023-04-18T10:38:17.321Z,3.80
2023-04-18T10:41:24.689Z,4.33
2023-04-18T10:44:27.758Z,4.47
2023-04-18T11:04:09.820Z,4.10
2023-04-18T11:07:12.633Z,3.83
2023-04-18T11:10:28.530Z,4.68
2023-04-18T11:13:32.294Z,4.32
2023-04-18T11:16:35.891Z,4.20
2023-04-18T11:19:38.547Z,4.63
2023-04-18T11:22:50.388Z,5.27
2023-04-18T11:25:56.719Z,4.85
2023-04-18T11:28:59.328Z,4.10
2023-04-18T11:32:02.002Z,4.82
2023-04-18T11:35:05.110Z,4.90
2023-04-18T11:38:08.882Z,5.07
2023-04-18T11:41:17.716Z,5.10
2023-04-18T11:44:24.949Z,5.22
2023-04-18T11:47:38.324Z,5.10
2023-04-18T11:50:41.074Z,4.63
2023-04-18T11:53:43.796Z,4.93
2023-04-18T11:56:48.844Z,5.18
2023-04-18T11:59:59.857Z,5.22
2023-04-18T12:03:04.862Z,5.10
2023-04-18T12:06:07.827Z,5.37
2023-04-18T12:09:14.681Z,6.17
2023-04-18T12:12:19.645Z,5.05
2023-04-18T12:15:29.336Z,6.07
2023-04-18T12:18:32.726Z,5.20
2023-04-18T12:21:35.440Z,4.60
2023-04-18T12:24:38.305Z,5.23
2023-04-18T12:27:52.263Z,4.72
2023-04-18T12:31:02.143Z,4.82
2023-04-18T12:34:04.830Z,5.50
2023-04-18T12:37:07.360Z,4.30
2023-04-18T12:40:11.299Z,5.00
2023-04-18T12:43:14.013Z,4.82
2023-04-18T12:46:17.089Z,4.55
2023-04-18T12:49:19.909Z,4.15
2023-04-18T12:52:22.896Z,3.67
2023-04-18T12:55:26.117Z,4.70
2023-04-18T12:58:28.821Z,6.60
2023-04-18T13:01:31.710Z,5.20
2023-04-18T13:04:34.900Z,4.88
2023-04-18T13:07:40.805Z,5.30
2023-04-18T13:10:43.734Z,4.17
2023-04-18T13:13:47.079Z,4.32
2023-04-18T13:16:49.823Z,4.00
2023-04-18T13:19:52.709Z,3.88
2023-04-18T13:22:55.974Z,3.80
2023-04-18T13:25:58.818Z,4.37
2023-04-18T13:29:02.236Z,4.15
2023-04-18T13:32:06.222Z,3.95
2023-04-18T13:35:09.252Z,4.07
2023-04-18T13:38:11.770Z,3.17
2023-04-18T13:41:14.375Z,3.03
2023-04-18T13:44:16.987Z,3.75
2023-04-18T13:47:19.820Z,3.13
2023-04-18T13:50:23.338Z,4.15
2023-04-18T13:53:26.009Z,3.63
2023-04-18T13:56:28.673Z,5.47
2023-04-18T13:59:32.647Z,3.83
2023-04-18T14:02:35.385Z,2.95
2023-04-18T14:05:38.331Z,2.85
2023-04-18T14:08:41.087Z,2.30
2023-04-18T14:11:45.457Z,2.50
2023-04-18T14:14:48.117Z,2.65
2023-04-18T14:17:50.629Z,2.50
2023-04-18T14:20:53.427Z,2.97
2023-04-18T14:23:56.367Z,2.40
2023-04-18T14:26:58.978Z,2.57
2023-04-18T14:30:01.835Z,2.88
2023-04-18T14:33:05.086Z,2.88
2023-04-18T14:36:08.526Z,2.30
2023-04-18T14:39:11.340Z,2.97
2023-04-18T14:42:14.224Z,2.30
2023-04-18T14:45:17.087Z,2.47
2023-04-18T14:48:19.796Z,2.20
2023-04-18T14:51:23.504Z,2.97
2023-04-18T14:54:26.175Z,2.53
2023-04-18T14:57:31.834Z,2.27
2023-04-18T15:00:34.475Z,3.13
2023-04-18T15:03:37.479Z,2.63
2023-04-18T15:06:40.933Z,2.70
2023-04-18T15:09:43.661Z,2.40
2023-04-18T15:12:49.215Z,3.03
2023-04-18T15:15:53.023Z,2.83
2023-04-18T15:18:55.755Z,3.15
2023-04-18T15:21:58.409Z,4.72
2023-04-18T15:25:01.018Z,5.47
2023-04-18T15:28:03.732Z,4.20
2023-04-18T15:31:07.429Z,3.53
2023-04-18T15:34:10.255Z,3.42
2023-04-18T15:37:13.055Z,3.53
2023-04-18T15:40:16.591Z,3.97
2023-04-18T15:43:19.308Z,4.80
2023-04-18T15:46:22.300Z,4.07
2023-04-18T15:49:24.962Z,3.88
2023-04-18T15:52:27.625Z,4.22
2023-04-18T15:55:30.265Z,5.10
2023-04-18T15:58:32.839Z,5.20
2023-04-18T16:01:35.835Z,4.10
2023-04-18T16:04:38.497Z,4.47
2023-04-18T16:07:42.403Z,3.72
2023-04-18T16:10:45.170Z,4.00
2023-04-18T16:13:47.826Z,3.90
2023-04-18T16:16:50.531Z,3.80
2023-04-18T16:19:54.346Z,3.58
2023-04-18T16:22:56.912Z,2.20
2023-04-18T16:25:59.490Z,2.37
2023-04-18T16:29:02.212Z,2.23
2023-04-18T16:32:06.735Z,3.85
2023-04-18T16:35:10.362Z,16.05
2023-04-18T16:38:12.918Z,4.13
2023-04-18T16:41:15.816Z,4.20
2023-04-18T16:44:18.614Z,3.70
2023-04-18T16:47:21.369Z,6.88
2023-04-18T16:50:24.858Z,4.13
2023-04-18T16:53:27.654Z,4.50
2023-04-18T16:56:30.780Z,3.20
2023-04-18T16:59:33.410Z,2.57
2023-04-18T17:02:36.196Z,2.30
2023-04-18T17:05:39.520Z,2.40
2023-04-18T17:08:42.678Z,2.85
2023-04-18T17:11:45.790Z,2.60
2023-04-18T17:14:48.516Z,2.80
2023-04-18T17:17:51.127Z,2.85
2023-04-18T17:20:53.892Z,7.85
2023-04-18T17:23:57.302Z,8.63
2023-04-18T17:27:01.376Z,4.83
2023-04-18T17:30:04.836Z,4.53
2023-04-18T17:33:07.815Z,4.47
2023-04-18T17:36:10.982Z,4.45
2023-04-18T17:39:16.442Z,4.63
2023-04-18T17:42:19.876Z,4.63
2023-04-18T17:45:22.567Z,8.27
2023-04-18T17:48:25.982Z,5.45
2023-04-18T17:51:28.810Z,4.82
2023-04-18T17:54:32.840Z,6.40
2023-04-18T17:57:35.611Z,4.23
2023-04-18T18:00:39.396Z,3.63
2023-04-18T18:03:43.029Z,4.40
2023-04-18T18:06:55.933Z,3.90
2023-04-18T18:09:58.519Z,4.32
2023-04-18T18:13:01.264Z,3.67
2023-04-18T18:16:04.362Z,3.73
2023-04-18T18:19:09.857Z,3.58
2023-04-18T18:22:12.610Z,3.50
2023-04-18T18:25:15.497Z,3.30
2023-04-18T18:28:18.803Z,3.00
2023-04-18T18:31:24.932Z,3.67
2023-04-18T18:34:29.881Z,3.50
2023-04-18T18:37:33.135Z,4.10
2023-04-18T18:40:36.054Z,4.80
2023-04-18T18:43:38.925Z,4.87
2023-04-18T18:46:43.079Z,4.50
2023-04-18T18:49:46.589Z,4.93
2023-04-18T18:52:49.366Z,4.55
2023-04-18T18:55:51.922Z,5.40
2023-04-18T18:58:57.312Z,6.23
2023-04-18T19:02:00.042Z,5.00
2023-04-18T19:05:04.041Z,6.40
2023-04-18T19:08:06.889Z,4.10
2023-04-18T19:11:10.210Z,2.80
2023-04-18T19:14:13.960Z,3.40
2023-04-18T19:17:18.656Z,2.90
2023-04-18T19:20:22.730Z,3.22
2023-04-18T19:23:25.763Z,3.55
2023-04-18T19:26:28.570Z,2.70
2023-04-18T19:29:32.925Z,3.00
2023-04-18T19:32:36.412Z,2.27
2023-04-18T19:35:39.213Z,2.00
2023-04-18T19:38:41.832Z,2.50
2023-04-18T19:41:44.535Z,2.30
2023-04-18T19:44:47.379Z,2.23
2023-04-18T19:47:50.371Z,1.90
2023-04-18T19:50:52.981Z,1.65
2023-04-18T19:53:55.795Z,1.90
2023-04-18T19:56:58.791Z,1.67
2023-04-18T20:00:01.514Z,1.83
2023-04-18T20:03:17.054Z,1.83
2023-04-18T20:06:20.386Z,2.00
2023-04-18T20:09:23.316Z,1.30
2023-04-18T20:12:26.091Z,2.28
2023-04-18T20:15:30.717Z,2.00
2023-04-18T20:18:35.867Z,1.70
2023-04-18T20:21:38.607Z,2.15
2023-04-18T20:24:41.461Z,1.90
2023-04-18T20:27:44.260Z,1.80
2023-04-18T20:30:48.080Z,2.23
2023-04-18T20:33:51.033Z,1.70
2023-04-18T20:36:53.925Z,13.65
2023-04-18T20:39:58.821Z,5.97
2023-04-18T20:43:04.395Z,7.25
2023-04-18T20:46:07.358Z,9.57
2023-04-18T20:49:10.213Z,6.30
2023-04-18T20:52:14.540Z,10.57
2023-04-18T20:55:18.435Z,5.60
2023-04-18T20:58:21.156Z,3.40
2023-04-18T21:01:23.982Z,2.73
2023-04-18T21:04:27.656Z,3.87
2023-04-18T21:07:31.306Z,2.65
2023-04-18T21:10:34.244Z,2.67
2023-04-18T21:13:37.095Z,2.45
2023-04-18T21:16:39.956Z,2.07
2023-04-18T21:19:44.688Z,3.27
2023-04-18T21:22:47.412Z,3.42
2023-04-18T21:25:50.329Z,3.88
2023-04-18T21:28:53.416Z,3.50
2023-04-18T21:31:56.147Z,4.00
2023-04-18T21:34:58.991Z,4.70
2023-04-18T21:38:01.698Z,4.03
2023-04-18T21:41:05.766Z,4.32
2023-04-18T21:44:08.422Z,4.20
2023-04-18T21:47:11.064Z,4.73
2023-04-18T21:50:13.752Z,4.90
2023-04-18T21:53:16.478Z,4.00
2023-04-18T21:56:19.115Z,3.90
2023-04-18T21:59:21.966Z,3.75
2023-04-18T22:02:25.694Z,3.60
2023-04-18T22:05:28.972Z,3.57
2023-04-18T22:08:31.746Z,3.33
2023-04-18T22:11:34.386Z,4.07
2023-04-18T22:14:37.028Z,3.53
2023-04-18T22:17:41.515Z,4.27
2023-04-18T22:20:45.299Z,4.10
2023-04-18T22:23:47.979Z,3.90
2023-04-18T22:26:50.663Z,4.35
2023-04-18T22:29:53.285Z,4.60
2023-04-18T22:32:55.954Z,4.03
2023-04-18T22:35:58.756Z,3.97
2023-04-18T22:39:01.474Z,3.60
2023-04-18T22:42:05.181Z,3.75
2023-04-18T22:45:08.340Z,3.97
2023-04-18T22:48:13.420Z,3.00
2023-04-18T22:51:18.297Z,3.60
2023-04-18T22:54:21.183Z,2.90
2023-04-18T22:57:23.826Z,3.55
2023-04-18T23:00:26.443Z,3.70
2023-04-18T23:03:31.300Z,3.70
2023-04-18T23:06:34.075Z,3.67
2023-04-18T23:09:37.988Z,3.25
2023-04-18T23:12:40.670Z,2.78
2023-04-18T23:15:43.412Z,3.63
2023-04-18T23:18:46.110Z,2.90
2023-04-18T23:21:49.727Z,3.10
2023-04-18T23:24:52.675Z,3.58
2023-04-18T23:27:55.274Z,3.05
2023-04-18T23:30:57.882Z,3.80
2023-04-18T23:34:00.447Z,4.60
2023-04-18T23:37:03.132Z,4.53
2023-04-18T23:40:06.975Z,6.07
2023-04-18T23:43:09.754Z,5.88
2023-04-18T23:46:13.340Z,6.35
2023-04-18T23:49:16.312Z,6.67
2023-04-18T23:52:18.910Z,5.20
2023-04-18T23:55:21.597Z,5.55
2023-04-18T23:58:24.200Z,5.78
